CheckWX is a tool to help pilots better visualize weather data.  It is not intended as a substitute for an official pre-flight weather briefing.

01:09:06 UTC

CYAY METAR
Saint Anthony Airport
St. Anthony, Canada
Current

50 mins ago

CYAY 200019Z AUTO 34007KT 9SM OVC024 13/09 A2963 RMK SLP037 DENSITY ALT 200FT
Observed
Jul-20 @ 00:19 UTC
Wind
  • 340° at 7 KTS
Visibility
9 SM
Flight Rules
MVFR
Cloud Levels
  • Overcast at 2,400' AGL
Temperature
13°C / 55°F
Dewpoint
C / 48°F
Humidity
77%
Altimeter
29.63" Hg
Pressure
1003.42 hPa
Previous

1 hour ago

CYAY 200000Z AUTO 34006KT 9SM OVC026 13/09 A2963 RMK SLP037 DENSITY ALT 200FT
Observed
Jul-20 @ 00:00 UTC
Wind
  • 340° at 6 KTS
Visibility
9 SM
Flight Rules
MVFR
Cloud Levels
  • Overcast at 2,600' AGL
Temperature
13°C / 55°F
Dewpoint
C / 48°F
Humidity
77%
Altimeter
29.63" Hg
Pressure
1003.42 hPa
Previous

2 hours ago

CYAY 192300Z AUTO 35013KT 9SM BKN030 OVC036 14/10 A2961 RMK SLP031 DENSITY ALT 300FT
Observed
Jul-19 @ 23:00 UTC
Wind
  • 350° at 13 KTS
Visibility
9 SM
Flight Rules
MVFR
Cloud Levels
  • Broken at 3,000' AGL
  • Overcast at 3,600' AGL
Temperature
14°C / 57°F
Dewpoint
10°C / 50°F
Humidity
77%
Altimeter
29.61" Hg
Pressure
1002.72 hPa